createdAt,value
2018-12-15T00:00:25.451Z,20.32
2018-12-15T00:02:55.110Z,21.07
2018-12-15T00:05:24.861Z,19.27
2018-12-15T00:07:57.226Z,20.65
2018-12-15T00:10:30.114Z,21.42
2018-12-15T00:12:58.874Z,22.13
2018-12-15T00:15:27.690Z,21.35
2018-12-15T00:17:57.426Z,19.87
2018-12-15T00:20:27.109Z,20.80
2018-12-15T00:22:55.861Z,21.93
2018-12-15T00:25:28.266Z,19.07
2018-12-15T00:27:57.069Z,19.75
2018-12-15T00:30:31.142Z,23.07
2018-12-15T00:33:00.889Z,21.40
2018-12-15T00:35:29.721Z,21.07
2018-12-15T00:37:59.378Z,22.90
2018-12-15T00:40:29.041Z,20.62
2018-12-15T00:42:57.842Z,16.27
2018-12-15T00:45:26.650Z,15.53
2018-12-15T00:47:56.911Z,18.62
2018-12-15T00:50:27.718Z,20.70
2018-12-15T00:53:00.786Z,19.07
2018-12-15T00:55:30.482Z,19.87
2018-12-15T00:57:59.340Z,22.62
2018-12-15T01:00:28.210Z,20.23
2018-12-15T01:02:57.878Z,13.70
2018-12-15T01:05:26.631Z,21.75
2018-12-15T01:07:55.516Z,19.75
2018-12-15T01:10:24.328Z,23.30
2018-12-15T01:12:54.074Z,19.50
2018-12-15T01:15:31.947Z,25.40
2018-12-15T01:18:13.259Z,25.17
2018-12-15T01:20:43.038Z,13.43
2018-12-15T01:23:15.715Z,27.62
2018-12-15T01:25:44.831Z,16.05
2018-12-15T01:28:13.673Z,19.32
2018-12-15T01:30:44.447Z,13.28
2018-12-15T01:33:13.258Z,20.35
2018-12-15T01:35:42.059Z,21.95
2018-12-15T01:38:14.359Z,19.95
2018-12-15T01:40:44.095Z,15.03
2018-12-15T01:43:12.923Z,15.63
2018-12-15T01:45:43.750Z,18.82
2018-12-15T01:48:12.462Z,16.75
2018-12-15T01:50:41.331Z,17.60
2018-12-15T01:53:11.015Z,24.37
2018-12-15T01:55:41.726Z,23.20
2018-12-15T01:58:11.533Z,16.10
2018-12-15T02:00:41.351Z,22.98
2018-12-15T02:03:16.607Z,21.33
2018-12-15T02:05:45.347Z,23.80
2018-12-15T02:08:15.996Z,22.00
2018-12-15T02:10:44.827Z,19.60
2018-12-15T02:13:14.519Z,21.35
2018-12-15T02:15:43.347Z,11.97
2018-12-15T02:18:16.604Z,16.50
2018-12-15T02:20:50.115Z,24.87
2018-12-15T02:23:20.799Z,15.75
2018-12-15T02:25:53.287Z,18.75
2018-12-15T02:28:27.116Z,15.55
2018-12-15T02:30:55.859Z,18.73
2018-12-15T02:33:24.565Z,20.20
2018-12-15T02:35:54.435Z,27.32
2018-12-15T02:38:24.108Z,15.40
2018-12-15T02:41:05.475Z,19.30
2018-12-15T02:43:34.356Z,16.05
2018-12-15T02:46:04.189Z,25.25
2018-12-15T02:48:33.975Z,17.82
2018-12-15T02:51:02.773Z,17.45
2018-12-15T02:53:34.981Z,18.65
2018-12-15T02:56:10.604Z,17.05
2018-12-15T02:58:43.084Z,15.53
2018-12-15T03:01:20.509Z,17.23
2018-12-15T03:03:50.307Z,19.77
2018-12-15T03:06:19.080Z,26.07
2018-12-15T03:08:47.883Z,17.20
2018-12-15T03:11:17.675Z,14.13
2018-12-15T03:13:49.583Z,13.88
2018-12-15T03:16:20.279Z,14.07
2018-12-15T03:18:51.109Z,22.80
2018-12-15T03:21:21.849Z,19.20
2018-12-15T03:23:56.051Z,14.55
2018-12-15T03:26:28.211Z,16.50
2018-12-15T03:28:59.878Z,15.93
2018-12-15T03:31:30.821Z,25.08
2018-12-15T03:33:59.675Z,14.03
2018-12-15T03:36:28.487Z,17.98
2018-12-15T03:38:58.283Z,15.23
2018-12-15T03:41:27.687Z,14.65
2018-12-15T03:43:56.491Z,13.70
2018-12-15T03:46:25.351Z,21.20
2018-12-15T03:48:56.077Z,13.65
2018-12-15T03:51:24.996Z,20.80
2018-12-15T03:53:57.240Z,18.48
2018-12-15T03:56:32.779Z,16.65
2018-12-15T03:59:01.636Z,21.05
2018-12-15T04:01:44.724Z,31.93
2018-12-15T04:04:14.661Z,13.80
2018-12-15T04:06:48.924Z,16.87
2018-12-15T04:09:21.748Z,15.20
2018-12-15T04:11:54.364Z,14.50
2018-12-15T04:14:42.334Z,15.23
2018-12-15T04:17:12.176Z,15.83
2018-12-15T04:19:40.945Z,18.35
2018-12-15T04:22:19.180Z,18.02
2018-12-15T04:24:48.056Z,15.03
2018-12-15T04:27:17.888Z,15.20
2018-12-15T04:29:53.872Z,13.30
2018-12-15T04:32:23.708Z,19.05
2018-12-15T04:34:53.509Z,22.13
2018-12-15T04:37:26.196Z,14.58
2018-12-15T04:39:56.017Z,18.77
2018-12-15T04:42:25.736Z,14.80
2018-12-15T04:44:55.468Z,14.87
2018-12-15T04:47:25.166Z,12.88
2018-12-15T04:49:54.953Z,14.40
2018-12-15T04:52:29.455Z,16.62
2018-12-15T04:54:59.069Z,21.35
2018-12-15T04:57:27.881Z,14.20
2018-12-15T05:00:05.676Z,12.23
2018-12-15T05:02:43.742Z,21.52
2018-12-15T05:05:11.352Z,17.02
2018-12-15T05:07:40.240Z,15.60
2018-12-15T05:10:09.104Z,15.95
2018-12-15T05:12:37.941Z,12.55
2018-12-15T05:15:11.538Z,14.63
2018-12-15T05:17:40.241Z,23.40
2018-12-15T05:20:11.109Z,14.38
2018-12-15T05:22:39.988Z,15.80
2018-12-15T05:25:19.256Z,20.37
2018-12-15T05:27:58.153Z,12.45
2018-12-15T05:30:27.923Z,19.60
2018-12-15T05:32:57.689Z,12.53
2018-12-15T05:35:38.429Z,15.23
2018-12-15T05:38:07.268Z,17.55
2018-12-15T05:40:36.164Z,19.40
2018-12-15T05:43:05.938Z,15.63
2018-12-15T05:45:38.420Z,11.93
2018-12-15T05:48:09.196Z,12.15
2018-12-15T05:50:41.840Z,16.15
2018-12-15T05:53:11.617Z,17.62
2018-12-15T05:55:40.522Z,15.08
2018-12-15T05:58:09.341Z,17.85
2018-12-15T06:00:42.420Z,13.25
2018-12-15T06:03:16.121Z,21.68
2018-12-15T06:05:52.792Z,12.58
2018-12-15T06:08:21.597Z,11.30
2018-12-15T06:10:50.401Z,12.73
2018-12-15T06:13:24.057Z,17.10
2018-12-15T06:15:54.839Z,16.20
2018-12-15T06:18:31.596Z,17.45
2018-12-15T06:21:00.297Z,15.68
2018-12-15T06:23:34.701Z,13.20
2018-12-15T06:26:31.984Z,13.72
2018-12-15T06:29:02.874Z,12.60
2018-12-15T06:31:37.853Z,30.60
2018-12-15T06:34:06.664Z,12.98
2018-12-15T06:36:38.241Z,15.88
2018-12-15T06:39:11.112Z,18.98
2018-12-15T06:41:40.860Z,13.98
2018-12-15T06:44:10.529Z,13.22
2018-12-15T06:46:39.385Z,16.50
2018-12-15T06:49:14.660Z,19.32
2018-12-15T06:51:43.524Z,13.43
2018-12-15T06:54:14.329Z,19.42
2018-12-15T06:56:48.524Z,13.78
2018-12-15T06:59:27.300Z,21.42
2018-12-15T07:01:56.104Z,14.83
2018-12-15T07:04:30.713Z,18.25
2018-12-15T07:06:59.564Z,18.85
2018-12-15T07:09:29.349Z,16.77
2018-12-15T07:12:00.173Z,16.05
2018-12-15T07:14:30.928Z,25.45
2018-12-15T07:16:59.700Z,13.20
2018-12-15T07:19:29.524Z,12.50
2018-12-15T07:22:00.340Z,15.18
2018-12-15T07:24:29.304Z,14.00
2018-12-15T07:27:02.824Z,12.82
2018-12-15T07:29:32.660Z,12.82
2018-12-15T07:32:09.492Z,14.05
2018-12-15T07:34:38.364Z,12.65
2018-12-15T07:37:07.088Z,14.47
2018-12-15T07:39:41.501Z,17.12
2018-12-15T07:42:10.423Z,14.05
2018-12-15T07:44:40.208Z,19.00
2018-12-15T07:47:12.596Z,17.57
2018-12-15T07:49:43.371Z,15.45
2018-12-15T07:52:17.936Z,20.43
2018-12-15T07:54:46.777Z,13.65
2018-12-15T07:57:19.136Z,12.70
2018-12-15T07:59:47.933Z,18.73
2018-12-15T08:02:18.676Z,15.40
2018-12-15T08:04:53.565Z,13.48
2018-12-15T08:07:30.640Z,15.18
2018-12-15T08:10:01.442Z,15.20
2018-12-15T08:12:38.860Z,13.62
2018-12-15T08:15:09.739Z,8.30
2018-12-15T08:17:39.544Z,9.73
2018-12-15T08:20:08.464Z,9.33
2018-12-15T08:22:42.780Z,7.37
2018-12-15T08:25:35.944Z,11.55
2018-12-15T08:28:05.776Z,10.25
2018-12-15T08:30:34.659Z,8.50
2018-12-15T08:33:04.440Z,11.80
2018-12-15T08:35:40.440Z,8.25
2018-12-15T08:38:22.335Z,8.83
2018-12-15T08:40:54.532Z,6.10
2018-12-15T08:43:26.272Z,9.88
2018-12-15T08:45:56.567Z,5.95
2018-12-15T08:48:25.292Z,10.65
2018-12-15T08:51:02.045Z,6.37
2018-12-15T08:53:31.840Z,9.50
2018-12-15T08:56:13.725Z,6.87
2018-12-15T08:58:42.599Z,6.25
2018-12-15T09:01:24.142Z,4.25
2018-12-15T09:03:52.955Z,6.95
2018-12-15T09:06:26.143Z,6.47
2018-12-15T09:11:22.183Z,11.18
2018-12-15T09:13:51.875Z,5.65
2018-12-15T09:16:26.251Z,6.45
2018-12-15T09:18:53.227Z,7.25
2018-12-15T09:21:22.036Z,8.25
2018-12-15T09:24:04.247Z,5.80
2018-12-15T09:26:37.495Z,8.05
2018-12-15T09:29:07.331Z,6.97
2018-12-15T09:31:42.140Z,6.33
2018-12-15T09:34:10.883Z,5.67
2018-12-15T09:36:41.699Z,5.03
2018-12-15T09:39:15.091Z,5.40
2018-12-15T09:41:44.898Z,6.58
2018-12-15T09:44:13.687Z,6.55
2018-12-15T09:46:43.483Z,6.95
2018-12-15T09:49:17.616Z,5.40
2018-12-15T09:51:43.007Z,9.50
2018-12-15T09:54:11.719Z,11.65
2018-12-15T09:56:42.527Z,7.33
2018-12-15T09:59:24.956Z,12.73
2018-12-15T10:01:57.327Z,8.15
2018-12-15T10:04:27.143Z,7.20
2018-12-15T10:06:56.810Z,7.10
2018-12-15T10:09:25.625Z,9.13
2018-12-15T10:12:13.326Z,8.70
2018-12-15T10:14:42.207Z,9.50
2018-12-15T10:17:10.955Z,8.78
2018-12-15T10:19:43.159Z,7.97
2018-12-15T10:22:12.959Z,12.80
2018-12-15T10:24:45.207Z,7.35
2018-12-15T10:27:17.138Z,7.30
2018-12-15T10:29:56.003Z,7.92
2018-12-15T10:32:45.027Z,5.80
2018-12-15T10:35:13.742Z,6.33
2018-12-15T10:37:42.563Z,9.58
2018-12-15T10:40:16.052Z,6.50
2018-12-15T10:42:45.736Z,8.63
2018-12-15T10:45:36.144Z,6.83
2018-12-15T10:48:05.935Z,12.00
2018-12-15T10:50:37.831Z,10.05
2018-12-15T10:53:07.635Z,7.55
2018-12-15T10:55:38.403Z,9.03
2018-12-15T10:58:07.275Z,10.45
2018-12-15T11:00:42.487Z,6.30
2018-12-15T11:03:17.083Z,15.23
2018-12-15T11:05:50.779Z,6.05
2018-12-15T11:08:22.927Z,10.68
2018-12-15T11:10:53.716Z,5.75
2018-12-15T11:13:32.483Z,7.37
2018-12-15T11:16:02.184Z,5.05
2018-12-15T11:18:35.439Z,11.75
2018-12-15T11:21:05.075Z,10.28
2018-12-15T11:23:33.927Z,11.35
2018-12-15T11:26:11.068Z,6.70
2018-12-15T11:28:43.019Z,6.12
2018-12-15T11:31:12.817Z,7.35
2018-12-15T11:33:41.609Z,7.03
2018-12-15T11:36:14.180Z,7.70
2018-12-15T11:38:42.993Z,6.90
2018-12-15T11:41:12.788Z,8.98
2018-12-15T11:43:41.577Z,8.23
2018-12-15T11:46:20.760Z,11.18
2018-12-15T11:48:54.168Z,6.55
2018-12-15T11:51:23.832Z,7.05
2018-12-15T11:53:52.736Z,7.08
2018-12-15T11:56:22.241Z,7.30
2018-12-15T11:58:51.964Z,9.25
2018-12-15T12:01:21.768Z,8.70
2018-12-15T12:03:55.380Z,9.15
2018-12-15T12:06:24.214Z,13.22
2018-12-15T12:08:57.584Z,7.78
2018-12-15T12:11:40.340Z,8.25
2018-12-15T12:14:13.080Z,7.80
2018-12-15T12:20:00.100Z,9.28
2018-12-15T12:22:28.912Z,7.85
2018-12-15T12:24:58.652Z,8.15
2018-12-15T12:30:22.692Z,12.37
2018-12-15T12:32:54.730Z,10.40
2018-12-15T12:35:23.528Z,9.45
2018-12-15T12:37:52.348Z,9.18
2018-12-15T12:40:21.172Z,12.35
2018-12-15T12:42:49.916Z,11.85
2018-12-15T12:45:37.404Z,11.20
2018-12-15T12:48:07.224Z,10.82
2018-12-15T12:50:35.944Z,10.10
2018-12-15T12:53:06.792Z,9.90
2018-12-15T12:55:40.384Z,11.25
2018-12-15T12:58:10.100Z,12.45
2018-12-15T13:00:39.952Z,16.12
2018-12-15T13:03:08.831Z,8.73
2018-12-15T13:05:41.389Z,10.85
2018-12-15T13:08:11.221Z,10.20
2018-12-15T13:10:39.996Z,10.53
2018-12-15T13:13:13.016Z,10.93
2018-12-15T13:15:46.717Z,13.25
2018-12-15T13:18:15.504Z,13.83
2018-12-15T13:20:46.172Z,12.78
2018-12-15T13:23:14.935Z,17.48
2018-12-15T13:25:44.716Z,12.30
2018-12-15T13:28:13.489Z,12.37
2018-12-15T13:30:42.296Z,11.22
2018-12-15T13:33:29.648Z,11.33
2018-12-15T13:35:59.580Z,14.73
2018-12-15T13:38:33.784Z,15.15
2018-12-15T13:41:02.615Z,14.93
2018-12-15T13:43:32.450Z,15.85
2018-12-15T13:46:03.260Z,11.38
2018-12-15T13:48:32.404Z,13.90
2018-12-15T13:51:02.213Z,13.05
2018-12-15T13:53:31.901Z,17.12
2018-12-15T13:56:00.756Z,13.48
2018-12-15T13:58:29.684Z,13.00
2018-12-15T14:00:58.569Z,22.73
2018-12-15T14:03:29.298Z,20.23
2018-12-15T14:05:58.069Z,14.60
2018-12-15T14:08:27.809Z,17.32
2018-12-15T14:10:56.604Z,19.48
2018-12-15T14:13:25.329Z,16.77
2018-12-15T14:15:54.219Z,15.98
2018-12-15T14:18:23.077Z,12.78
2018-12-15T14:20:51.804Z,17.07
2018-12-15T14:23:20.611Z,23.57
2018-12-15T14:25:49.424Z,22.52
2018-12-15T14:28:22.616Z,19.48
2018-12-15T14:30:51.452Z,18.73
2018-12-15T14:33:20.368Z,19.67
2018-12-15T14:35:52.651Z,20.88
2018-12-15T14:38:22.472Z,20.30
2018-12-15T14:40:52.236Z,18.62
2018-12-15T14:43:23.092Z,20.12
2018-12-15T14:45:56.856Z,21.42
2018-12-15T14:48:26.509Z,16.90
2018-12-15T14:50:55.344Z,16.93
2018-12-15T14:53:28.377Z,17.45
2018-12-15T14:56:01.108Z,15.43
2018-12-15T14:58:30.037Z,15.80
2018-12-15T15:01:08.572Z,24.00
2018-12-15T15:03:38.201Z,23.35
2018-12-15T15:06:08.005Z,24.15
2018-12-15T15:08:36.748Z,17.05
2018-12-15T15:11:15.667Z,22.75
2018-12-15T15:13:52.076Z,24.07
2018-12-15T15:16:24.864Z,23.18
2018-12-15T15:18:53.627Z,16.57
2018-12-15T15:21:25.363Z,21.35
2018-12-15T15:23:57.536Z,14.40
2018-12-15T15:26:38.347Z,16.15
2018-12-15T15:29:07.083Z,19.48
2018-12-15T15:31:36.952Z,15.15
2018-12-15T15:34:05.689Z,22.40
2018-12-15T15:36:43.808Z,19.48
2018-12-15T15:39:12.660Z,15.58
2018-12-15T15:41:41.488Z,17.98
2018-12-15T15:44:21.168Z,19.65
2018-12-15T15:46:54.152Z,19.92
2018-12-15T15:49:39.595Z,24.90
2018-12-15T15:52:39.400Z,16.40
2018-12-15T15:55:08.323Z,18.05
2018-12-15T15:57:41.300Z,23.73
2018-12-15T16:00:11.439Z,22.80
2018-12-15T16:02:41.285Z,21.33
2018-12-15T16:05:22.771Z,18.35
2018-12-15T16:07:51.583Z,16.25
2018-12-15T16:10:28.656Z,16.77
2018-12-15T16:13:01.743Z,17.92
2018-12-15T16:15:34.439Z,25.48
2018-12-15T16:18:04.324Z,16.45
2018-12-15T16:20:33.116Z,13.10
2018-12-15T16:23:06.432Z,19.95
2018-12-15T16:25:39.192Z,13.78
2018-12-15T16:28:09.959Z,18.98
2018-12-15T16:30:40.916Z,15.32
2018-12-15T16:33:09.729Z,26.10
2018-12-15T16:35:40.543Z,14.87
2018-12-15T16:38:10.300Z,18.98
2018-12-15T16:40:40.052Z,20.52
2018-12-15T16:43:09.884Z,21.85
2018-12-15T16:45:40.500Z,27.70
2018-12-15T16:48:09.332Z,14.53
2018-12-15T16:50:49.880Z,17.20
2018-12-15T16:53:17.728Z,18.05
2018-12-15T16:55:55.780Z,17.35
2018-12-15T16:58:37.032Z,16.37
2018-12-15T17:01:06.852Z,17.52
2018-12-15T17:03:39.488Z,10.32
2018-12-15T17:06:09.784Z,15.05
2018-12-15T17:08:44.023Z,12.90
2018-12-15T17:11:12.944Z,11.38
2018-12-15T17:13:42.722Z,12.05
2018-12-15T17:16:28.616Z,15.68
2018-12-15T17:18:58.412Z,15.05
2018-12-15T17:21:29.161Z,15.58
2018-12-15T17:23:57.933Z,12.50
2018-12-15T17:26:32.032Z,14.25
2018-12-15T17:29:01.874Z,13.70
2018-12-15T17:31:30.768Z,14.58
2018-12-15T17:34:02.830Z,14.85
2018-12-15T17:36:35.680Z,16.52
2018-12-15T17:39:06.367Z,16.65
2018-12-15T17:41:35.156Z,13.75
2018-12-15T17:44:15.128Z,15.55
2018-12-15T17:46:50.183Z,14.83
2018-12-15T17:49:20.644Z,17.65
2018-12-15T17:51:53.344Z,15.38
2018-12-15T17:54:22.240Z,21.25
2018-12-15T17:56:53.788Z,15.25
2018-12-15T17:59:25.796Z,21.12
2018-12-15T18:02:01.660Z,23.42
2018-12-15T18:04:31.497Z,24.05
2018-12-15T18:07:00.364Z,22.10
2018-12-15T18:09:31.148Z,23.98
2018-12-15T18:12:00.781Z,17.42
2018-12-15T18:14:33.976Z,15.68
2018-12-15T18:17:09.980Z,14.90
2018-12-15T18:19:38.868Z,21.60
2018-12-15T18:22:07.672Z,17.10
2018-12-15T18:24:36.813Z,25.65
2018-12-15T18:27:05.689Z,21.75
2018-12-15T18:29:36.369Z,18.17
2018-12-15T18:32:05.984Z,25.12
2018-12-15T18:34:39.988Z,17.67
2018-12-15T18:37:08.736Z,15.83
2018-12-15T18:39:39.481Z,20.43
2018-12-15T18:42:10.942Z,21.00
2018-12-15T18:44:39.982Z,17.80
2018-12-15T18:47:15.472Z,19.37
2018-12-15T18:49:50.048Z,19.57
2018-12-15T18:52:19.049Z,19.52
2018-12-15T18:54:47.884Z,18.23
2018-12-15T18:57:17.520Z,24.63
2018-12-15T18:59:47.277Z,21.75
2018-12-15T19:02:16.144Z,23.07
2018-12-15T19:04:47.949Z,28.17
2018-12-15T19:07:29.869Z,16.60
2018-12-15T19:09:58.732Z,21.60
2018-12-15T19:12:27.958Z,22.20
2018-12-15T19:14:59.068Z,18.65
2018-12-15T19:17:29.889Z,22.62
2018-12-15T19:20:04.592Z,21.02
2018-12-15T19:22:34.352Z,25.90
2018-12-15T19:25:03.289Z,27.87
2018-12-15T19:27:34.069Z,14.65
2018-12-15T19:30:03.376Z,19.48
2018-12-15T19:32:32.108Z,19.07
2018-12-15T19:35:00.829Z,22.42
2018-12-15T19:37:33.965Z,24.27
2018-12-15T19:40:02.821Z,25.52
2018-12-15T19:42:35.868Z,23.80
2018-12-15T19:45:08.324Z,23.07
2018-12-15T19:47:37.056Z,23.32
2018-12-15T19:50:07.076Z,19.65
2018-12-15T19:52:35.960Z,26.15
2018-12-15T19:55:06.865Z,15.70
2018-12-15T19:57:39.404Z,19.75
2018-12-15T20:00:09.285Z,17.73
2018-12-15T20:02:39.073Z,17.40
2018-12-15T20:05:11.252Z,22.45
2018-12-15T20:07:40.225Z,26.00
2018-12-15T20:10:09.880Z,18.80
2018-12-15T20:12:39.652Z,18.73
2018-12-15T20:15:13.173Z,17.30
2018-12-15T20:18:01.913Z,13.15
2018-12-15T20:20:36.392Z,14.93
2018-12-15T20:23:06.100Z,16.70
2018-12-15T20:25:36.849Z,15.13
2018-12-15T20:28:06.592Z,29.25
2018-12-15T20:30:36.395Z,21.77
2018-12-15T20:33:05.221Z,17.15
2018-12-15T20:35:38.854Z,19.90
2018-12-15T20:38:10.878Z,21.95
2018-12-15T20:40:41.796Z,16.70
2018-12-15T20:43:14.457Z,23.95
2018-12-15T20:45:47.420Z,17.62
2018-12-15T20:48:41.121Z,18.37
2018-12-15T20:51:10.061Z,19.32
2018-12-15T20:53:38.913Z,17.40
2018-12-15T20:56:09.760Z,17.98
2018-12-15T20:58:58.189Z,17.32
2018-12-15T21:01:31.880Z,12.23
2018-12-15T21:04:01.614Z,13.05
2018-12-15T21:06:31.317Z,20.15
2018-12-15T21:09:00.030Z,17.02
2018-12-15T21:11:32.573Z,17.65
2018-12-15T21:14:01.305Z,19.17
2018-12-15T21:16:30.941Z,13.80
2018-12-15T21:19:04.397Z,14.18
2018-12-15T21:21:34.036Z,21.87
2018-12-15T21:24:02.897Z,15.10
2018-12-15T21:26:31.833Z,19.00
2018-12-15T21:29:06.221Z,18.07
2018-12-15T21:31:37.189Z,15.05
2018-12-15T21:34:07.989Z,15.80
2018-12-15T21:36:42.773Z,12.20
2018-12-15T21:39:15.085Z,11.30
2018-12-15T21:41:45.116Z,21.02
2018-12-15T21:44:13.841Z,26.73
2018-12-15T21:46:42.709Z,19.07
2018-12-15T21:49:16.749Z,15.58
2018-12-15T21:51:56.100Z,13.20
2018-12-15T21:54:23.293Z,8.30
2018-12-15T21:56:55.557Z,11.57
2018-12-15T21:59:24.279Z,30.05
2018-12-15T22:02:00.857Z,20.65
2018-12-15T22:04:38.185Z,23.50
2018-12-15T22:07:06.993Z,19.67
2018-12-15T22:09:39.209Z,14.68
2018-12-15T22:12:09.933Z,14.38
2018-12-15T22:14:38.652Z,14.10
2018-12-15T22:17:07.495Z,12.98
2018-12-15T22:19:39.873Z,12.63
2018-12-15T22:22:10.746Z,12.55
2018-12-15T22:24:39.661Z,16.10
2018-12-15T22:27:09.325Z,16.23
2018-12-15T22:29:46.113Z,14.33
2018-12-15T22:32:14.836Z,13.85
2018-12-15T22:34:48.729Z,12.20
2018-12-15T22:37:21.500Z,10.82
2018-12-15T22:39:51.185Z,12.13
2018-12-15T22:42:19.988Z,13.72
2018-12-15T22:44:54.309Z,13.80
2018-12-15T22:47:23.060Z,9.30
2018-12-15T22:49:55.101Z,12.43
2018-12-15T22:52:31.671Z,19.30
2018-12-15T22:55:00.540Z,20.10
2018-12-15T22:57:39.948Z,11.40
2018-12-15T23:00:11.244Z,10.30
2018-12-15T23:02:54.748Z,20.85
2018-12-15T23:05:34.101Z,15.10
2018-12-15T23:08:09.445Z,18.07
2018-12-15T23:10:38.184Z,12.47
2018-12-15T23:13:07.801Z,13.58
2018-12-15T23:15:38.528Z,16.55
2018-12-15T23:18:07.253Z,11.03
2018-12-15T23:20:36.082Z,26.62
2018-12-15T23:23:11.120Z,10.08
2018-12-15T23:25:39.940Z,15.20
2018-12-15T23:28:09.621Z,9.25
2018-12-15T23:30:41.764Z,8.65
2018-12-15T23:33:12.428Z,9.93
2018-12-15T23:35:44.616Z,14.95
2018-12-15T23:38:31.804Z,12.68
2018-12-15T23:41:06.928Z,15.53
2018-12-15T23:43:43.056Z,17.55
2018-12-15T23:46:13.728Z,16.07
2018-12-15T23:48:46.268Z,11.85
2018-12-15T23:51:18.480Z,13.35
2018-12-15T23:54:08.656Z,13.30
2018-12-15T23:56:38.029Z,17.27
2018-12-15T23:59:12.012Z,19.67
